Terminal Aerodrome Forecast
Issued by NWS

Home | Current Version | Previous Version | Text Only | Print | Product List | Glossary On
Versions: 1 2 3 4 5 6 7 8 9 10 11 12 13 14
061
FTUS45 KABQ 232342
TAFGUP
TAF
KGUP 232342Z 2400/2424 04008KT P6SM VCTS SCT070CB BKN100
     FM240300 20008KT P6SM VCSH BKN090
     FM240900 VRB03KT P6SM BKN090
     FM241900 30005KT P6SM VCSH SCT050 BKN100=

USA.gov is the U.S. government's official web portal to all federal, state and local government web resources and services.